Green Atlantic — 3ELB3 — position and weather

sailwx.info

Track history (hours):
 
Tides and Currents Weather Stations Pressure Air Temp Water Temp Dewpoint Dewpoint Depression Visibility Wind Speed Wind Dir Waves Ship Positions

Green Atlantic

Last reported at 2018-Apr-23 05:00 UTC. Time now 2018-Apr-23 05:16 UTC.
Position N 55°40' E 012°42'.

Length 94 m; draft 5 m.

Type: Cargo ship. MMSI: 353799000.

Date/timePositionNaut miles runAvg speedWind from/ knotsBaromVisibWave heightAir tempDewpointWater temp
2018-Apr-23 05:00N 55°40' E 012°42'612.3
2018-Apr-23 04:30N 55°34' E 012°42'611.1
2018-Apr-23 04:01N 55°28' E 012°43'611.2
2018-Apr-23 03:30N 55°23' E 012°41'510.0
2018-Apr-23 03:00N 55°18' E 012°44'511.0
2018-Apr-23 02:30N 55°16' E 012°53'611.0
2018-Apr-23 02:00N 55°16' E 013°03'611.1
2018-Apr-23 01:30N 55°15' E 013°13'611.1
2018-Apr-23 00:59N 55°15' E 013°22'611.2
2018-Apr-23 00:29N 55°15' E 013°32'611.3
2018-Apr-22 23:57N 55°15' E 013°43'611.3
2018-Apr-22 23:27N 55°14' E 013°53'511.4
2018-Apr-22 23:00N 55°14' E 014°02'611.3
2018-Apr-22 22:30N 55°14' E 014°11'510.1
2018-Apr-22 22:00N 55°16' E 014°20'511.1
2018-Apr-22 21:30N 55°20' E 014°26'510.9
2018-Apr-22 21:00N 55°23' E 014°33'510.2
2018-Apr-22 20:30N 55°25' E 014°42'611.0
2018-Apr-22 19:57N 55°26' E 014°52'511.1
2018-Apr-22 19:31N 55°26' E 015°01'611.1
2018-Apr-22 19:00N 55°26' E 015°11'510.9
2018-Apr-22 18:30N 55°27' E 015°20'610.8
2018-Apr-22 18:00N 55°27' E 015°30'511.0
2018-Apr-22 17:31N 55°28' E 015°39'611.0
2018-Apr-22 17:00N 55°28' E 015°49'510.9
2018-Apr-22 16:30N 55°28' E 015°59'510.8
2018-Apr-22 16:01N 55°28' E 016°08'510.9
2018-Apr-22 15:30N 55°29' E 016°18'611.1
2018-Apr-22 15:01N 55°29' E 016°28'611.0
2018-Apr-22 14:31N 55°29' E 016°37'510.9
2018-Apr-22 14:00N 55°30' E 016°47'510.9
2018-Apr-22 13:30N 55°30' E 016°57'3010.6
2018-Apr-22 10:43N 55°33' E 017°49'52 1.1
2018-Apr-20 12:17N 55°22' E 019°19'410.5
2018-Apr-20 11:55N 55°20' E 019°13'410.5
2018-Apr-20 11:30N 55°19' E 019°06'510.5
2018-Apr-20 11:00N 55°17' E 018°57'510.6
2018-Apr-20 10:30N 55°14' E 018°49'510.6
2018-Apr-20 10:00N 55°12' E 018°40'510.5
2018-Apr-20 09:30N 55°10' E 018°32'510.5
2018-Apr-20 09:00N 55°08' E 018°24'810.5
2018-Apr-20 08:14N 55°05' E 018°11'210.5
2018-Apr-20 08:00N 55°04' E 018°07'510.5
2018-Apr-20 07:30N 55°02' E 017°58'510.4
2018-Apr-20 06:59N 54°60' E 017°50'510.4
2018-Apr-20 06:30N 54°58' E 017°42'510.4
2018-Apr-20 05:59N 54°56' E 017°33'510.5
2018-Apr-20 05:30N 54°54' E 017°25'1810.3
2018-Apr-20 03:46N 54°49' E 016°55'1510.2
2018-Apr-20 02:19N 54°47' E 016°30'1410.3
2018-Apr-20 00:54N 54°39' E 016°08'610.5
2018-Apr-20 00:20N 54°36' E 015°59'410.4
2018-Apr-19 23:58N 54°34' E 015°53'610.4
2018-Apr-19 23:25N 54°31' E 015°45'510.3
2018-Apr-19 22:57N 54°29' E 015°38'61 8.4
2018-Apr-19 15:44N 53°46' E 014°24'210.0
2018-Apr-19 15:30N 53°44' E 014°26'510.0
2018-Apr-19 15:00N 53°40' E 014°31'5 9.4
2018-Apr-19 14:30N 53°36' E 014°35'5 8.8
2018-Apr-19 14:00N 53°32' E 014°38'4 8.7
2018-Apr-19 13:29N 53°28' E 014°36'3 4.8
2018-Apr-19 12:58N 53°26' E 014°35'0 0.0
2018-Apr-19 12:28N 53°26' E 014°35'0 0.0
2018-Apr-19 11:58N 53°26' E 014°35'0 0.0
2018-Apr-19 11:28N 53°26' E 014°35'0 0.0
2018-Apr-19 10:58N 53°26' E 014°35'0 0.0
2018-Apr-19 10:22N 53°26' E 014°35'0 0.0
2018-Apr-19 09:55N 53°26' E 014°35'0 0.0
2018-Apr-19 09:25N 53°26' E 014°35'0 0.0
2018-Apr-19 08:55N 53°26' E 014°35'0 0.0
2018-Apr-19 08:25N 53°26' E 014°35'0 0.0
2018-Apr-19 08:01N 53°26' E 014°35'0 0.0
2018-Apr-19 07:30N 53°26' E 014°35'0 0.0
2018-Apr-19 06:51N 53°26' E 014°35'0 0.0
2018-Apr-19 06:30N 53°26' E 014°35'0 0.0
2018-Apr-19 06:00N 53°26' E 014°35'0 0.0
2018-Apr-19 05:30N 53°26' E 014°35'0 0.0
2018-Apr-19 05:00N 53°26' E 014°35'0 0.0
2018-Apr-19 04:27N 53°26' E 014°35'0 0.0
2018-Apr-19 03:57N 53°26' E 014°35'0 0.0
2018-Apr-19 03:27N 53°26' E 014°35'0 0.0
2018-Apr-19 03:00N 53°26' E 014°35'0 0.0
2018-Apr-19 02:30N 53°26' E 014°35'0 0.1
2018-Apr-19 01:57N 53°26' E 014°35'2 3.7
2018-Apr-19 01:27N 53°27' E 014°36'4 7.5
2018-Apr-19 00:57N 53°31' E 014°38'4 8.8
2018-Apr-19 00:30N 53°35' E 014°36'4 8.8
2018-Apr-19 00:00N 53°39' E 014°34'5 9.2
2018-Apr-18 23:30N 53°42' E 014°29'101 9.7
2018-Apr-18 13:05N 55°10' E 013°01'110.2
2018-Apr-18 12:59N 55°10' E 012°60'510.1
2018-Apr-18 12:30N 55°14' E 012°53'5 9.9
2018-Apr-18 11:57N 55°16' E 012°45'4 9.8
2018-Apr-18 11:30N 55°18' E 012°38'5 9.6
2018-Apr-18 10:59N 55°23' E 012°39'5 9.9
2018-Apr-18 10:30N 55°28' E 012°41'510.3
2018-Apr-18 10:00N 55°33' E 012°42'510.2
2018-Apr-18 09:30N 55°38' E 012°42'510.2
2018-Apr-18 09:00N 55°43' E 012°41'5 9.8
2018-Apr-18 08:30N 55°48' E 012°41'510.1
2018-Apr-18 08:00N 55°53' E 012°39'510.0
2018-Apr-18 07:30N 55°58' E 012°38'5 9.8
2018-Apr-18 07:00N 56°03' E 012°38'510.2
2018-Apr-18 06:30N 56°07' E 012°32'43 9.5
2018-Apr-18 01:57N 56°43' E 011°51'18 9.7
2018-Apr-18 00:04N 57°01' E 011°42'1 9.4
2018-Apr-17 23:58N 57°02' E 011°41'4 9.3
2018-Apr-17 23:30N 57°06' E 011°38'5 9.2
2018-Apr-17 23:00N 57°10' E 011°35'5 9.5
2018-Apr-17 22:30N 57°14' E 011°32'5 9.6
2018-Apr-17 22:00N 57°19' E 011°29'5 9.8
2018-Apr-17 21:30N 57°23' E 011°26'5 9.8
2018-Apr-17 21:00N 57°28' E 011°23'5 9.7
2018-Apr-17 20:30N 57°31' E 011°16'5 9.5
2018-Apr-17 20:00N 57°34' E 011°09'5 9.6
2018-Apr-17 19:30N 57°38' E 011°03'5 9.7
2018-Apr-17 19:00N 57°41' E 010°56'5 9.7
2018-Apr-17 18:30N 57°45' E 010°50'510.1
2018-Apr-17 18:00N 57°48' E 010°42'610.5
2018-Apr-17 17:27N 57°48' E 010°32'610.0
2018-Apr-17 16:52N 57°48' E 010°21'410.0
2018-Apr-17 16:29N 57°48' E 010°14'14 8.3
2018-Apr-17 14:46N 57°50' E 009°47'44 8.1
2018-Apr-17 09:17N 57°53' E 008°24'2 7.0
2018-Apr-17 09:00N 57°53' E 008°20'5 9.5
2018-Apr-17 08:30N 57°52' E 008°12'5 9.7
2018-Apr-17 07:59N 57°52' E 008°02'5 9.6
2018-Apr-17 07:29N 57°53' E 007°53'5 9.9
2018-Apr-17 07:00N 57°53' E 007°44'510.1
2018-Apr-17 06:30N 57°53' E 007°34'510.1
2018-Apr-17 06:00N 57°54' E 007°25'510.0
2018-Apr-17 05:30N 57°54' E 007°16'510.0
2018-Apr-17 05:00N 57°54' E 007°06'5 9.5
2018-Apr-17 04:30N 57°55' E 006°58'5 9.6
2018-Apr-17 04:00N 57°57' E 006°50'5 9.5
2018-Apr-17 03:29N 57°60' E 006°41'4 9.3
2018-Apr-17 03:00N 58°02' E 006°34'4 8.6
2018-Apr-17 02:30N 58°04' E 006°28'4 8.2
2018-Apr-17 02:00N 58°08' E 006°23'4 8.2
2018-Apr-17 01:30N 58°11' E 006°18'4 8.5
2018-Apr-17 01:00N 58°14' E 006°13'4 8.5
2018-Apr-17 00:30N 58°17' E 006°08'5 9.3
2018-Apr-17 00:00N 58°21' E 006°02'5 9.0
2018-Apr-16 23:30N 58°25' E 005°60'1 2.3
2018-Apr-16 22:58N 58°27' E 005°59'0 0.0
2018-Apr-16 22:28N 58°27' E 005°59'0 0.0
2018-Apr-16 21:58N 58°27' E 005°59'0 0.0
2018-Apr-16 21:28N 58°27' E 005°59'0 0.0
2018-Apr-16 20:58N 58°27' E 005°59'0 0.0
2018-Apr-16 20:28N 58°27' E 005°59'0 0.0
2018-Apr-16 19:58N 58°27' E 005°59'0 0.0
2018-Apr-16 19:28N 58°27' E 005°59'0 0.0
2018-Apr-16 18:58N 58°27' E 005°59'0 0.0
2018-Apr-16 18:28N 58°27' E 005°59'0 0.0
2018-Apr-16 17:58N 58°27' E 005°59'0 0.0
2018-Apr-16 17:28N 58°27' E 005°59'0 0.0
2018-Apr-16 16:58N 58°27' E 005°59'0 0.0
2018-Apr-16 16:28N 58°27' E 005°59'0 0.0
2018-Apr-16 15:58N 58°27' E 005°59'0 0.0
2018-Apr-16 15:28N 58°27' E 005°59'0 0.0
2018-Apr-16 15:00N 58°27' E 005°59'1 2.2
2018-Apr-16 14:30N 58°25' E 005°59'3 5.8
2018-Apr-16 14:00N 58°23' E 005°56'5 9.6
2018-Apr-16 13:30N 58°26' E 005°48'510.2
2018-Apr-16 13:00N 58°29' E 005°41'510.8
2018-Apr-16 12:30N 58°34' E 005°35'510.1
2018-Apr-16 12:00N 58°38' E 005°30'5 9.6
2018-Apr-16 11:29N 58°42' E 005°24'4 9.2
2018-Apr-16 11:00N 58°46' E 005°19'4 9.2
2018-Apr-16 10:30N 58°49' E 005°15'5 9.1
2018-Apr-16 10:00N 58°53' E 005°10'5 9.0
2018-Apr-16 09:30N 58°57' E 005°05'4 8.6
2018-Apr-16 09:00N 59°01' E 005°00'4 8.5
2018-Apr-16 08:30N 59°04' E 004°56'4 8.4
2018-Apr-16 08:00N 59°08' E 004°52'75 9.5
2018-Apr-16 00:04N 60°22' E 004°26'1 9.3
2018-Apr-16 00:00N 60°22' E 004°26'5 9.5
2018-Apr-15 23:29N 60°27' E 004°25'5 9.9
2018-Apr-15 23:00N 60°32' E 004°23'510.5
2018-Apr-15 22:30N 60°37' E 004°22'510.8
2018-Apr-15 22:00N 60°43' E 004°20'510.8
2018-Apr-15 21:30N 60°48' E 004°19'510.4
2018-Apr-15 21:00N 60°53' E 004°18'510.1
2018-Apr-15 20:29N 60°58' E 004°17'5 9.5
2018-Apr-15 20:00N 61°03' E 004°18'5 9.7
2018-Apr-15 19:29N 61°08' E 004°20'5 9.7
2018-Apr-15 19:00N 61°13' E 004°22'5 9.9
2018-Apr-15 18:30N 61°17' E 004°23'510.0
2018-Apr-15 18:00N 61°22' E 004°25'5 9.8
2018-Apr-15 17:30N 61°27' E 004°25'5 9.6
2018-Apr-15 17:00N 61°32' E 004°26'5 9.5
2018-Apr-15 16:30N 61°37' E 004°27'5 9.5
2018-Apr-15 16:00N 61°41' E 004°28'510.0
2018-Apr-15 15:29N 61°46' E 004°32'510.5
2018-Apr-15 15:00N 61°50' E 004°38'510.1
2018-Apr-15 14:30N 61°55' E 004°43'510.2
2018-Apr-15 14:00N 61°59' E 004°48'510.0
2018-Apr-15 13:30N 62°03' E 004°55'510.1
2018-Apr-15 12:59N 62°04' E 005°06'510.0
2018-Apr-15 12:30N 62°03' E 005°16'3 3.6
2018-Apr-15 11:39N 62°02' E 005°22'0 0.0
2018-Apr-15 11:27N 62°02' E 005°22'0 0.0
2018-Apr-15 10:51N 62°02' E 005°22'0 0.0
2018-Apr-15 10:15N 62°02' E 005°22'0 0.0
2018-Apr-15 10:00N 62°02' E 005°22'0 0.0
2018-Apr-15 09:24N 62°02' E 005°22'0 0.0
2018-Apr-15 08:51N 62°02' E 005°22'0 0.0
2018-Apr-15 08:30N 62°02' E 005°22'0 0.0
2018-Apr-15 07:57N 62°02' E 005°22'0 0.0
2018-Apr-15 07:30N 62°02' E 005°22'1 2.0
2018-Apr-15 07:00N 62°02' E 005°20'4 8.9
2018-Apr-15 06:30N 61°60' E 005°12'4 8.1
2018-Apr-15 06:00N 61°56' E 005°08'0 0.1
2018-Apr-15 05:30N 61°56' E 005°08'0 0.0
2018-Apr-15 05:00N 61°56' E 005°08'0 0.0
2018-Apr-15 04:30N 61°56' E 005°08'0 0.0
2018-Apr-15 04:00N 61°56' E 005°08'0 0.0
2018-Apr-15 03:30N 61°56' E 005°08'0 0.0
2018-Apr-15 03:00N 61°56' E 005°08'0 0.0
2018-Apr-15 02:30N 61°56' E 005°08'0 0.0
2018-Apr-15 02:00N 61°56' E 005°08'0 0.0
2018-Apr-15 01:30N 61°56' E 005°08'0 0.0
2018-Apr-15 01:00N 61°56' E 005°08'0 0.0
2018-Apr-15 00:30N 61°56' E 005°08'0 0.0
2018-Apr-15 00:00N 61°56' E 005°08'0 0.0
2018-Apr-14 23:30N 61°56' E 005°08'0 0.0
2018-Apr-14 23:00N 61°56' E 005°08'0 0.0
2018-Apr-14 22:30N 61°56' E 005°08'0 0.0
2018-Apr-14 22:00N 61°56' E 005°08'0 0.0
2018-Apr-14 21:30N 61°56' E 005°08'0 0.0
2018-Apr-14 21:00N 61°56' E 005°08'0 0.0
2018-Apr-14 20:30N 61°56' E 005°08'0 0.0
2018-Apr-14 20:00N 61°56' E 005°08'0 0.0
2018-Apr-14 19:30N 61°56' E 005°08'0 0.0
2018-Apr-14 19:00N 61°56' E 005°08'0 0.0
2018-Apr-14 18:30N 61°56' E 005°08'0 0.0
2018-Apr-14 18:00N 61°56' E 005°08'0 0.0
2018-Apr-14 17:30N 61°56' E 005°08'0 0.0
2018-Apr-14 17:00N 61°56' E 005°08'3 5.5
2018-Apr-14 16:30N 61°59' E 005°09'5 9.9
2018-Apr-14 16:00N 62°04' E 005°07'510.2
2018-Apr-14 15:29N 62°09' E 005°04'4 8.1
2018-Apr-14 15:00N 62°13' E 005°07'5 9.2
2018-Apr-14 14:30N 62°12' E 005°17'4 8.4
2018-Apr-14 13:59N 62°11' E 005°26'4 8.9
2018-Apr-14 13:30N 62°11' E 005°35'5 9.8
2018-Apr-14 12:59N 62°12' E 005°46'5 9.6
2018-Apr-14 12:30N 62°14' E 005°55'510.0
2018-Apr-14 12:00N 62°18' E 006°01'4 8.8
2018-Apr-14 11:30N 62°21' E 006°07'1 1.7
2018-Apr-14 10:58N 62°21' E 006°05'0 0.0
2018-Apr-14 10:22N 62°21' E 006°05'0 0.0
2018-Apr-14 09:58N 62°21' E 006°05'0 0.0
2018-Apr-14 09:28N 62°21' E 006°05'1 2.7
2018-Apr-14 09:00N 62°22' E 006°05'510.1
2018-Apr-14 08:30N 62°26' E 005°58'5 9.8
2018-Apr-14 07:59N 62°30' E 005°50'5 9.8
2018-Apr-14 07:30N 62°35' E 005°48'510.1
2018-Apr-14 07:00N 62°40' E 005°49'5 9.8
2018-Apr-14 06:30N 62°45' E 005°49'5 9.4
2018-Apr-14 05:59N 62°48' E 005°56'4 9.2
2018-Apr-14 05:30N 62°52' E 006°01'5 9.4
2018-Apr-14 05:00N 62°56' E 006°07'5 9.6
2018-Apr-14 04:30N 62°60' E 006°13'510.0
2018-Apr-14 04:00N 63°04' E 006°19'21 9.8
2018-Apr-14 01:52N 63°21' E 006°46'17 9.9
2018-Apr-14 00:08N 63°35' E 007°08'  
Track history (hours):
 
Tides and Currents Weather Stations Pressure Air Temp Water Temp Dewpoint Dewpoint Depression Visibility Wind Speed Wind Dir Waves Ship Positions

Green Atlantic

Last reported at 2018-Apr-23 05:00 UTC. Time now 2018-Apr-23 05:16 UTC.
Position N 55°40' E 012°42'.

Length 94 m; draft 5 m.

Type: Cargo ship. MMSI: 353799000.

Date/timePositionNaut miles runAvg speedWind from/ knotsBaromVisibWave heightAir tempDewpointWater temp
2018-Apr-23 05:00N 55°40' E 012°42'612.3
2018-Apr-23 04:30N 55°34' E 012°42'611.1
2018-Apr-23 04:01N 55°28' E 012°43'611.2
2018-Apr-23 03:30N 55°23' E 012°41'510.0
2018-Apr-23 03:00N 55°18' E 012°44'511.0
2018-Apr-23 02:30N 55°16' E 012°53'611.0
2018-Apr-23 02:00N 55°16' E 013°03'611.1
2018-Apr-23 01:30N 55°15' E 013°13'611.1
2018-Apr-23 00:59N 55°15' E 013°22'611.2
2018-Apr-23 00:29N 55°15' E 013°32'611.3
2018-Apr-22 23:57N 55°15' E 013°43'611.3
2018-Apr-22 23:27N 55°14' E 013°53'511.4
2018-Apr-22 23:00N 55°14' E 014°02'611.3
2018-Apr-22 22:30N 55°14' E 014°11'510.1
2018-Apr-22 22:00N 55°16' E 014°20'511.1
2018-Apr-22 21:30N 55°20' E 014°26'510.9
2018-Apr-22 21:00N 55°23' E 014°33'510.2
2018-Apr-22 20:30N 55°25' E 014°42'611.0
2018-Apr-22 19:57N 55°26' E 014°52'511.1
2018-Apr-22 19:31N 55°26' E 015°01'611.1
2018-Apr-22 19:00N 55°26' E 015°11'510.9
2018-Apr-22 18:30N 55°27' E 015°20'610.8
2018-Apr-22 18:00N 55°27' E 015°30'511.0
2018-Apr-22 17:31N 55°28' E 015°39'611.0
2018-Apr-22 17:00N 55°28' E 015°49'510.9
2018-Apr-22 16:30N 55°28' E 015°59'510.8
2018-Apr-22 16:01N 55°28' E 016°08'510.9
2018-Apr-22 15:30N 55°29' E 016°18'611.1
2018-Apr-22 15:01N 55°29' E 016°28'611.0
2018-Apr-22 14:31N 55°29' E 016°37'510.9
2018-Apr-22 14:00N 55°30' E 016°47'510.9
2018-Apr-22 13:30N 55°30' E 016°57'3010.6
2018-Apr-22 10:43N 55°33' E 017°49'52 1.1
2018-Apr-20 12:17N 55°22' E 019°19'410.5
2018-Apr-20 11:55N 55°20' E 019°13'410.5
2018-Apr-20 11:30N 55°19' E 019°06'510.5
2018-Apr-20 11:00N 55°17' E 018°57'510.6
2018-Apr-20 10:30N 55°14' E 018°49'510.6
2018-Apr-20 10:00N 55°12' E 018°40'510.5
2018-Apr-20 09:30N 55°10' E 018°32'510.5
2018-Apr-20 09:00N 55°08' E 018°24'810.5
2018-Apr-20 08:14N 55°05' E 018°11'210.5
2018-Apr-20 08:00N 55°04' E 018°07'510.5
2018-Apr-20 07:30N 55°02' E 017°58'510.4
2018-Apr-20 06:59N 54°60' E 017°50'510.4
2018-Apr-20 06:30N 54°58' E 017°42'510.4
2018-Apr-20 05:59N 54°56' E 017°33'510.5
2018-Apr-20 05:30N 54°54' E 017°25'1810.3
2018-Apr-20 03:46N 54°49' E 016°55'1510.2
2018-Apr-20 02:19N 54°47' E 016°30'1410.3
2018-Apr-20 00:54N 54°39' E 016°08'610.5
2018-Apr-20 00:20N 54°36' E 015°59'410.4
2018-Apr-19 23:58N 54°34' E 015°53'610.4
2018-Apr-19 23:25N 54°31' E 015°45'510.3
2018-Apr-19 22:57N 54°29' E 015°38'61 8.4
2018-Apr-19 15:44N 53°46' E 014°24'210.0
2018-Apr-19 15:30N 53°44' E 014°26'510.0
2018-Apr-19 15:00N 53°40' E 014°31'5 9.4
2018-Apr-19 14:30N 53°36' E 014°35'5 8.8
2018-Apr-19 14:00N 53°32' E 014°38'4 8.7
2018-Apr-19 13:29N 53°28' E 014°36'3 4.8
2018-Apr-19 12:58N 53°26' E 014°35'0 0.0
2018-Apr-19 12:28N 53°26' E 014°35'0 0.0
2018-Apr-19 11:58N 53°26' E 014°35'0 0.0
2018-Apr-19 11:28N 53°26' E 014°35'0 0.0
2018-Apr-19 10:58N 53°26' E 014°35'0 0.0
2018-Apr-19 10:22N 53°26' E 014°35'0 0.0
2018-Apr-19 09:55N 53°26' E 014°35'0 0.0
2018-Apr-19 09:25N 53°26' E 014°35'0 0.0
2018-Apr-19 08:55N 53°26' E 014°35'0 0.0
2018-Apr-19 08:25N 53°26' E 014°35'0 0.0
2018-Apr-19 08:01N 53°26' E 014°35'0 0.0
2018-Apr-19 07:30N 53°26' E 014°35'0 0.0
2018-Apr-19 06:51N 53°26' E 014°35'0 0.0
2018-Apr-19 06:30N 53°26' E 014°35'0 0.0
2018-Apr-19 06:00N 53°26' E 014°35'0 0.0
2018-Apr-19 05:30N 53°26' E 014°35'0 0.0
2018-Apr-19 05:00N 53°26' E 014°35'0 0.0
2018-Apr-19 04:27N 53°26' E 014°35'0 0.0
2018-Apr-19 03:57N 53°26' E 014°35'0 0.0
2018-Apr-19 03:27N 53°26' E 014°35'0 0.0
2018-Apr-19 03:00N 53°26' E 014°35'0 0.0
2018-Apr-19 02:30N 53°26' E 014°35'0 0.1
2018-Apr-19 01:57N 53°26' E 014°35'2 3.7
2018-Apr-19 01:27N 53°27' E 014°36'4 7.5
2018-Apr-19 00:57N 53°31' E 014°38'4 8.8
2018-Apr-19 00:30N 53°35' E 014°36'4 8.8
2018-Apr-19 00:00N 53°39' E 014°34'5 9.2
2018-Apr-18 23:30N 53°42' E 014°29'101 9.7
2018-Apr-18 13:05N 55°10' E 013°01'110.2
2018-Apr-18 12:59N 55°10' E 012°60'510.1
2018-Apr-18 12:30N 55°14' E 012°53'5 9.9
2018-Apr-18 11:57N 55°16' E 012°45'4 9.8
2018-Apr-18 11:30N 55°18' E 012°38'5 9.6
2018-Apr-18 10:59N 55°23' E 012°39'5 9.9
2018-Apr-18 10:30N 55°28' E 012°41'510.3
2018-Apr-18 10:00N 55°33' E 012°42'510.2
2018-Apr-18 09:30N 55°38' E 012°42'510.2
2018-Apr-18 09:00N 55°43' E 012°41'5 9.8
2018-Apr-18 08:30N 55°48' E 012°41'510.1
2018-Apr-18 08:00N 55°53' E 012°39'510.0
2018-Apr-18 07:30N 55°58' E 012°38'5 9.8
2018-Apr-18 07:00N 56°03' E 012°38'510.2
2018-Apr-18 06:30N 56°07' E 012°32'43 9.5
2018-Apr-18 01:57N 56°43' E 011°51'18 9.7
2018-Apr-18 00:04N 57°01' E 011°42'1 9.4
2018-Apr-17 23:58N 57°02' E 011°41'4 9.3
2018-Apr-17 23:30N 57°06' E 011°38'5 9.2
2018-Apr-17 23:00N 57°10' E 011°35'5 9.5
2018-Apr-17 22:30N 57°14' E 011°32'5 9.6
2018-Apr-17 22:00N 57°19' E 011°29'5 9.8
2018-Apr-17 21:30N 57°23' E 011°26'5 9.8
2018-Apr-17 21:00N 57°28' E 011°23'5 9.7
2018-Apr-17 20:30N 57°31' E 011°16'5 9.5
2018-Apr-17 20:00N 57°34' E 011°09'5 9.6
2018-Apr-17 19:30N 57°38' E 011°03'5 9.7
2018-Apr-17 19:00N 57°41' E 010°56'5 9.7
2018-Apr-17 18:30N 57°45' E 010°50'510.1
2018-Apr-17 18:00N 57°48' E 010°42'610.5
2018-Apr-17 17:27N 57°48' E 010°32'610.0
2018-Apr-17 16:52N 57°48' E 010°21'410.0
2018-Apr-17 16:29N 57°48' E 010°14'14 8.3
2018-Apr-17 14:46N 57°50' E 009°47'44 8.1
2018-Apr-17 09:17N 57°53' E 008°24'2 7.0
2018-Apr-17 09:00N 57°53' E 008°20'5 9.5
2018-Apr-17 08:30N 57°52' E 008°12'5 9.7
2018-Apr-17 07:59N 57°52' E 008°02'5 9.6
2018-Apr-17 07:29N 57°53' E 007°53'5 9.9
2018-Apr-17 07:00N 57°53' E 007°44'510.1
2018-Apr-17 06:30N 57°53' E 007°34'510.1
2018-Apr-17 06:00N 57°54' E 007°25'510.0
2018-Apr-17 05:30N 57°54' E 007°16'510.0
2018-Apr-17 05:00N 57°54' E 007°06'5 9.5
2018-Apr-17 04:30N 57°55' E 006°58'5 9.6
2018-Apr-17 04:00N 57°57' E 006°50'5 9.5
2018-Apr-17 03:29N 57°60' E 006°41'4 9.3
2018-Apr-17 03:00N 58°02' E 006°34'4 8.6
2018-Apr-17 02:30N 58°04' E 006°28'4 8.2
2018-Apr-17 02:00N 58°08' E 006°23'4 8.2
2018-Apr-17 01:30N 58°11' E 006°18'4 8.5
2018-Apr-17 01:00N 58°14' E 006°13'4 8.5
2018-Apr-17 00:30N 58°17' E 006°08'5 9.3
2018-Apr-17 00:00N 58°21' E 006°02'5 9.0
2018-Apr-16 23:30N 58°25' E 005°60'1 2.3
2018-Apr-16 22:58N 58°27' E 005°59'0 0.0
2018-Apr-16 22:28N 58°27' E 005°59'0 0.0
2018-Apr-16 21:58N 58°27' E 005°59'0 0.0
2018-Apr-16 21:28N 58°27' E 005°59'0 0.0
2018-Apr-16 20:58N 58°27' E 005°59'0 0.0
2018-Apr-16 20:28N 58°27' E 005°59'0 0.0
2018-Apr-16 19:58N 58°27' E 005°59'0 0.0
2018-Apr-16 19:28N 58°27' E 005°59'0 0.0
2018-Apr-16 18:58N 58°27' E 005°59'0 0.0
2018-Apr-16 18:28N 58°27' E 005°59'0 0.0
2018-Apr-16 17:58N 58°27' E 005°59'0 0.0
2018-Apr-16 17:28N 58°27' E 005°59'0 0.0
2018-Apr-16 16:58N 58°27' E 005°59'0 0.0
2018-Apr-16 16:28N 58°27' E 005°59'0 0.0
2018-Apr-16 15:58N 58°27' E 005°59'0 0.0
2018-Apr-16 15:28N 58°27' E 005°59'0 0.0
2018-Apr-16 15:00N 58°27' E 005°59'1 2.2
2018-Apr-16 14:30N 58°25' E 005°59'3 5.8
2018-Apr-16 14:00N 58°23' E 005°56'5 9.6
2018-Apr-16 13:30N 58°26' E 005°48'510.2
2018-Apr-16 13:00N 58°29' E 005°41'510.8
2018-Apr-16 12:30N 58°34' E 005°35'510.1
2018-Apr-16 12:00N 58°38' E 005°30'5 9.6
2018-Apr-16 11:29N 58°42' E 005°24'4 9.2
2018-Apr-16 11:00N 58°46' E 005°19'4 9.2
2018-Apr-16 10:30N 58°49' E 005°15'5 9.1
2018-Apr-16 10:00N 58°53' E 005°10'5 9.0
2018-Apr-16 09:30N 58°57' E 005°05'4 8.6
2018-Apr-16 09:00N 59°01' E 005°00'4 8.5
2018-Apr-16 08:30N 59°04' E 004°56'4 8.4
2018-Apr-16 08:00N 59°08' E 004°52'75 9.5
2018-Apr-16 00:04N 60°22' E 004°26'1 9.3
2018-Apr-16 00:00N 60°22' E 004°26'5 9.5
2018-Apr-15 23:29N 60°27' E 004°25'5 9.9
2018-Apr-15 23:00N 60°32' E 004°23'510.5
2018-Apr-15 22:30N 60°37' E 004°22'510.8
2018-Apr-15 22:00N 60°43' E 004°20'510.8
2018-Apr-15 21:30N 60°48' E 004°19'510.4
2018-Apr-15 21:00N 60°53' E 004°18'510.1
2018-Apr-15 20:29N 60°58' E 004°17'5 9.5
2018-Apr-15 20:00N 61°03' E 004°18'5 9.7
2018-Apr-15 19:29N 61°08' E 004°20'5 9.7
2018-Apr-15 19:00N 61°13' E 004°22'5 9.9
2018-Apr-15 18:30N 61°17' E 004°23'510.0
2018-Apr-15 18:00N 61°22' E 004°25'5 9.8
2018-Apr-15 17:30N 61°27' E 004°25'5 9.6
2018-Apr-15 17:00N 61°32' E 004°26'5 9.5
2018-Apr-15 16:30N 61°37' E 004°27'5 9.5
2018-Apr-15 16:00N 61°41' E 004°28'510.0
2018-Apr-15 15:29N 61°46' E 004°32'510.5
2018-Apr-15 15:00N 61°50' E 004°38'510.1
2018-Apr-15 14:30N 61°55' E 004°43'510.2
2018-Apr-15 14:00N 61°59' E 004°48'510.0
2018-Apr-15 13:30N 62°03' E 004°55'510.1
2018-Apr-15 12:59N 62°04' E 005°06'510.0
2018-Apr-15 12:30N 62°03' E 005°16'3 3.6
2018-Apr-15 11:39N 62°02' E 005°22'0 0.0
2018-Apr-15 11:27N 62°02' E 005°22'0 0.0
2018-Apr-15 10:51N 62°02' E 005°22'0 0.0
2018-Apr-15 10:15N 62°02' E 005°22'0 0.0
2018-Apr-15 10:00N 62°02' E 005°22'0 0.0
2018-Apr-15 09:24N 62°02' E 005°22'0 0.0
2018-Apr-15 08:51N 62°02' E 005°22'0 0.0
2018-Apr-15 08:30N 62°02' E 005°22'0 0.0
2018-Apr-15 07:57N 62°02' E 005°22'0 0.0
2018-Apr-15 07:30N 62°02' E 005°22'1 2.0
2018-Apr-15 07:00N 62°02' E 005°20'4 8.9
2018-Apr-15 06:30N 61°60' E 005°12'4 8.1
2018-Apr-15 06:00N 61°56' E 005°08'0 0.1
2018-Apr-15 05:30N 61°56' E 005°08'0 0.0
2018-Apr-15 05:00N 61°56' E 005°08'0 0.0
2018-Apr-15 04:30N 61°56' E 005°08'0 0.0
2018-Apr-15 04:00N 61°56' E 005°08'0 0.0
2018-Apr-15 03:30N 61°56' E 005°08'0 0.0
2018-Apr-15 03:00N 61°56' E 005°08'0 0.0
2018-Apr-15 02:30N 61°56' E 005°08'0 0.0
2018-Apr-15 02:00N 61°56' E 005°08'0 0.0
2018-Apr-15 01:30N 61°56' E 005°08'0 0.0
2018-Apr-15 01:00N 61°56' E 005°08'0 0.0
2018-Apr-15 00:30N 61°56' E 005°08'0 0.0
2018-Apr-15 00:00N 61°56' E 005°08'0 0.0
2018-Apr-14 23:30N 61°56' E 005°08'0 0.0
2018-Apr-14 23:00N 61°56' E 005°08'0 0.0
2018-Apr-14 22:30N 61°56' E 005°08'0 0.0
2018-Apr-14 22:00N 61°56' E 005°08'0 0.0
2018-Apr-14 21:30N 61°56' E 005°08'0 0.0
2018-Apr-14 21:00N 61°56' E 005°08'0 0.0
2018-Apr-14 20:30N 61°56' E 005°08'0 0.0
2018-Apr-14 20:00N 61°56' E 005°08'0 0.0
2018-Apr-14 19:30N 61°56' E 005°08'0 0.0
2018-Apr-14 19:00N 61°56' E 005°08'0 0.0
2018-Apr-14 18:30N 61°56' E 005°08'0 0.0
2018-Apr-14 18:00N 61°56' E 005°08'0 0.0
2018-Apr-14 17:30N 61°56' E 005°08'0 0.0
2018-Apr-14 17:00N 61°56' E 005°08'3 5.5
2018-Apr-14 16:30N 61°59' E 005°09'5 9.9
2018-Apr-14 16:00N 62°04' E 005°07'510.2
2018-Apr-14 15:29N 62°09' E 005°04'4 8.1
2018-Apr-14 15:00N 62°13' E 005°07'5 9.2
2018-Apr-14 14:30N 62°12' E 005°17'4 8.4
2018-Apr-14 13:59N 62°11' E 005°26'4 8.9
2018-Apr-14 13:30N 62°11' E 005°35'5 9.8
2018-Apr-14 12:59N 62°12' E 005°46'5 9.6
2018-Apr-14 12:30N 62°14' E 005°55'510.0
2018-Apr-14 12:00N 62°18' E 006°01'4 8.8
2018-Apr-14 11:30N 62°21' E 006°07'1 1.7
2018-Apr-14 10:58N 62°21' E 006°05'0 0.0
2018-Apr-14 10:22N 62°21' E 006°05'0 0.0
2018-Apr-14 09:58N 62°21' E 006°05'0 0.0
2018-Apr-14 09:28N 62°21' E 006°05'1 2.7
2018-Apr-14 09:00N 62°22' E 006°05'510.1
2018-Apr-14 08:30N 62°26' E 005°58'5 9.8
2018-Apr-14 07:59N 62°30' E 005°50'5 9.8
2018-Apr-14 07:30N 62°35' E 005°48'510.1
2018-Apr-14 07:00N 62°40' E 005°49'5 9.8
2018-Apr-14 06:30N 62°45' E 005°49'5 9.4
2018-Apr-14 05:59N 62°48' E 005°56'4 9.2
2018-Apr-14 05:30N 62°52' E 006°01'5 9.4
2018-Apr-14 05:00N 62°56' E 006°07'5 9.6
2018-Apr-14 04:30N 62°60' E 006°13'510.0
2018-Apr-14 04:00N 63°04' E 006°19'21 9.8
2018-Apr-14 01:52N 63°21' E 006°46'17 9.9
2018-Apr-14 00:08N 63°35' E 007°08'  

Dump ship's entire track history